Time;durP1;ratioP1;P1;durP2;ratioP2;P2;SDS_P1;SDS_P2;PMS_P1;PMS_P2;Temp;Humidity;BMP_temperature;BMP_pressure;BME280_temperature;BME280_humidity;BME280_pressure;Samples;Min_cycle;Max_cycle;Signal;HPM_P1;HPM_P2
2022/07/08 00:00:01;;;;;;;6.03;2.43;;;;;;;;;;5049562;28;21006;-74
2022/07/08 00:02:28;;;;;;;3.53;2.53;;;;;;;;;;5047128;28;21000;-76
2022/07/08 00:04:55;;;;;;;3.50;2.20;;;;;;;;;;5030413;28;20434;-75
2022/07/08 00:07:24;;;;;;;4.87;2.87;;;;;;;;;;5030429;28;20938;-75
2022/07/08 00:09:51;;;;;;;3.57;2.67;;;;;;;;;;5044464;28;20492;-77
2022/07/08 00:12:18;;;;;;;4.03;2.57;;;;;;;;;;5050360;28;20473;-75
2022/07/08 00:14:45;;;;;;;4.00;2.30;;;;;;;;;;5050104;28;20477;-75
2022/07/08 00:17:12;;;;;;;4.70;2.30;;;;;;;;;;5050032;28;20448;-75
2022/07/08 00:19:39;;;;;;;5.50;2.50;;;;;;;;;;5050173;28;20865;-76
2022/07/08 00:22:06;;;;;;;8.13;3.10;;;;;;;;;;5050055;28;20552;-75
2022/07/08 00:24:35;;;;;;;7.10;3.03;;;;;;;;;;5049998;28;20442;-77
2022/07/08 00:27:02;;;;;;;4.67;3.20;;;;;;;;;;5050308;28;20445;-75
2022/07/08 00:29:29;;;;;;;4.63;3.13;;;;;;;;;;5050267;28;20445;-75
2022/07/08 00:31:56;;;;;;;5.00;3.13;;;;;;;;;;5050062;28;20469;-75
2022/07/08 00:34:23;;;;;;;4.73;3.30;;;;;;;;;;5050032;28;20555;-76
2022/07/08 00:36:50;;;;;;;7.97;3.80;;;;;;;;;;5051934;28;21052;-76
2022/07/08 00:39:17;;;;;;;4.77;3.77;;;;;;;;;;5050206;28;20441;-75
2022/07/08 00:41:45;;;;;;;5.47;4.20;;;;;;;;;;5050127;28;20599;-75
2022/07/08 00:44:12;;;;;;;4.77;3.77;;;;;;;;;;5049471;28;20516;-75
2022/07/08 00:46:39;;;;;;;8.90;4.60;;;;;;;;;;5050244;28;20453;-75
2022/07/08 00:49:06;;;;;;;7.70;4.30;;;;;;;;;;5053032;28;20446;-75
2022/07/08 00:51:34;;;;;;;6.90;3.90;;;;;;;;;;5054072;28;20877;-75
2022/07/08 00:54:01;;;;;;;4.77;3.40;;;;;;;;;;5052868;28;20929;-75
2022/07/08 00:56:29;;;;;;;7.83;3.77;;;;;;;;;;5053331;28;20463;-74
2022/07/08 00:58:57;;;;;;;5.83;4.20;;;;;;;;;;5053427;28;20493;-76
2022/07/08 01:01:24;;;;;;;4.93;4.00;;;;;;;;;;5053474;28;20445;-75
2022/07/08 01:03:52;;;;;;;6.13;3.87;;;;;;;;;;5057050;28;20433;-74
2022/07/08 01:06:19;;;;;;;6.77;3.83;;;;;;;;;;5056791;28;20450;-75
2022/07/08 01:08:46;;;;;;;6.70;3.97;;;;;;;;;;5055534;28;20499;-75
2022/07/08 01:11:13;;;;;;;5.80;4.20;;;;;;;;;;5053847;28;20501;-75
2022/07/08 01:13:40;;;;;;;5.87;4.13;;;;;;;;;;5053074;28;20477;-75
2022/07/08 01:16:09;;;;;;;6.80;4.10;;;;;;;;;;5053947;28;20445;-75
2022/07/08 01:18:36;;;;;;;6.43;3.97;;;;;;;;;;5053916;28;20441;-75
2022/07/08 01:21:05;;;;;;;6.93;4.50;;;;;;;;;;5053430;28;20853;-75
2022/07/08 01:23:32;;;;;;;6.20;4.07;;;;;;;;;;5053437;28;20515;-75
2022/07/08 01:26:00;;;;;;;7.20;4.50;;;;;;;;;;5053235;28;20429;-75
2022/07/08 01:28:27;;;;;;;9.93;4.70;;;;;;;;;;5053328;28;20449;-75
2022/07/08 01:30:54;;;;;;;4.90;4.10;;;;;;;;;;5053235;28;20503;-75
2022/07/08 01:33:21;;;;;;;6.00;4.00;;;;;;;;;;5052731;28;21242;-75
2022/07/08 01:35:48;;;;;;;6.40;3.77;;;;;;;;;;5053419;28;20445;-75
2022/07/08 01:38:16;;;;;;;7.33;4.10;;;;;;;;;;5053126;28;20442;-75
2022/07/08 01:40:43;;;;;;;5.53;3.83;;;;;;;;;;5052722;28;20449;-75
2022/07/08 01:43:10;;;;;;;7.77;4.33;;;;;;;;;;5052525;28;20839;-76
2022/07/08 01:45:37;;;;;;;5.33;3.90;;;;;;;;;;5052873;28;20445;-76
2022/07/08 01:48:05;;;;;;;6.73;4.00;;;;;;;;;;5053181;28;20445;-75
2022/07/08 01:50:32;;;;;;;7.60;4.20;;;;;;;;;;5053074;28;20471;-74
2022/07/08 01:52:59;;;;;;;5.33;3.80;;;;;;;;;;5052198;28;20812;-75
2022/07/08 01:55:27;;;;;;;5.33;3.93;;;;;;;;;;5052603;28;20484;-75
2022/07/08 01:57:54;;;;;;;6.27;3.67;;;;;;;;;;5052412;28;20449;-75
2022/07/08 02:00:22;;;;;;;9.20;4.40;;;;;;;;;;5052673;28;20452;-75
2022/07/08 02:02:49;;;;;;;12.17;4.83;;;;;;;;;;5052111;28;20469;-75
2022/07/08 02:05:16;;;;;;;4.70;4.03;;;;;;;;;;5055795;28;20448;-75
2022/07/08 02:07:43;;;;;;;7.47;3.80;;;;;;;;;;5052146;28;20445;-76
2022/07/08 02:10:11;;;;;;;4.83;4.27;;;;;;;;;;5035949;28;20446;-74
2022/07/08 02:12:39;;;;;;;5.77;4.10;;;;;;;;;;5031484;28;20473;-75
2022/07/08 02:15:07;;;;;;;7.63;4.03;;;;;;;;;;5033475;28;20578;-75
2022/07/08 02:17:35;;;;;;;6.43;3.80;;;;;;;;;;5033994;28;20497;-75
2022/07/08 02:20:04;;;;;;;5.30;3.60;;;;;;;;;;5035086;28;20449;-75
2022/07/08 02:22:31;;;;;;;9.10;4.53;;;;;;;;;;5031810;28;21037;-75
2022/07/08 02:24:58;;;;;;;6.40;3.43;;;;;;;;;;5032203;28;20445;-77
2022/07/08 02:27:25;;;;;;;4.40;3.80;;;;;;;;;;5032336;28;20442;-75
2022/07/08 02:29:54;;;;;;;4.03;3.67;;;;;;;;;;5032463;28;20447;-75
2022/07/08 02:32:21;;;;;;;9.10;4.37;;;;;;;;;;5031905;28;20470;-76
2022/07/08 02:34:47;;;;;;;4.87;3.60;;;;;;;;;;5031172;28;20478;-76
2022/07/08 02:37:15;;;;;;;4.20;3.13;;;;;;;;;;5031804;28;20519;-75
2022/07/08 02:39:42;;;;;;;6.40;3.57;;;;;;;;;;5031751;28;21072;-76
2022/07/08 02:42:09;;;;;;;6.00;3.47;;;;;;;;;;5031880;28;21111;-75
2022/07/08 02:44:37;;;;;;;4.63;3.60;;;;;;;;;;5031644;28;20530;-75
2022/07/08 02:47:06;;;;;;;10.53;3.80;;;;;;;;;;5031530;28;20525;-76
2022/07/08 02:49:33;;;;;;;6.23;3.57;;;;;;;;;;5031590;28;20450;-76
2022/07/08 02:52:00;;;;;;;8.73;4.00;;;;;;;;;;5031536;28;21146;-76
2022/07/08 02:54:27;;;;;;;5.00;3.40;;;;;;;;;;5031499;28;20474;-76
2022/07/08 02:56:54;;;;;;;6.73;4.40;;;;;;;;;;5031374;28;20931;-75
2022/07/08 02:59:21;;;;;;;9.43;4.70;;;;;;;;;;5031451;28;20476;-76
2022/07/08 03:01:48;;;;;;;8.50;3.97;;;;;;;;;;5031182;28;20481;-74
2022/07/08 03:04:16;;;;;;;5.20;3.73;;;;;;;;;;5032277;28;20961;-74
2022/07/08 03:06:43;;;;;;;4.70;3.87;;;;;;;;;;5032073;28;20443;-75
2022/07/08 03:09:10;;;;;;;5.57;3.43;;;;;;;;;;5031757;28;20947;-76
2022/07/08 03:11:37;;;;;;;8.90;4.30;;;;;;;;;;5031883;28;20475;-75
2022/07/08 03:14:04;;;;;;;6.53;4.17;;;;;;;;;;5031418;28;21004;-77
2022/07/08 03:16:31;;;;;;;4.00;3.33;;;;;;;;;;5031814;28;20501;-76
2022/07/08 03:18:58;;;;;;;6.43;3.73;;;;;;;;;;5031861;28;20508;-75
2022/07/08 03:21:27;;;;;;;8.00;3.40;;;;;;;;;;5031082;28;20500;-77
2022/07/08 03:23:54;;;;;;;7.77;3.87;;;;;;;;;;5030181;28;20453;-77
2022/07/08 03:26:21;;;;;;;5.10;3.63;;;;;;;;;;5030887;28;20446;-77
2022/07/08 03:28:48;;;;;;;5.87;3.87;;;;;;;;;;5031003;28;20834;-75
2022/07/08 03:31:15;;;;;;;6.77;3.63;;;;;;;;;;5045173;28;20446;-75
2022/07/08 03:33:42;;;;;;;5.50;3.50;;;;;;;;;;5050608;28;20446;-77
2022/07/08 03:36:09;;;;;;;5.53;4.20;;;;;;;;;;5034530;28;20478;-75
2022/07/08 03:38:37;;;;;;;7.60;4.70;;;;;;;;;;5030965;28;20452;-75
2022/07/08 03:41:24;;;;;;;8.37;3.80;;;;;;;;;;5031113;28;20942;-76
2022/07/08 03:43:51;;;;;;;8.33;3.77;;;;;;;;;;5031348;28;20521;-75
2022/07/08 03:46:18;;;;;;;7.43;4.20;;;;;;;;;;5031257;28;20439;-77
2022/07/08 03:48:45;;;;;;;7.50;4.40;;;;;;;;;;5031015;28;20525;-77
2022/07/08 03:51:13;;;;;;;7.87;3.60;;;;;;;;;;5030797;28;20450;-75
2022/07/08 03:53:42;;;;;;;4.70;3.63;;;;;;;;;;5030540;28;20442;-75
2022/07/08 03:56:09;;;;;;;7.67;4.17;;;;;;;;;;5030503;28;20543;-75
2022/07/08 03:58:36;;;;;;;8.20;4.20;;;;;;;;;;5030670;28;20801;-76
2022/07/08 04:01:03;;;;;;;6.30;4.20;;;;;;;;;;5030729;28;20450;-76
2022/07/08 04:03:30;;;;;;;7.90;3.47;;;;;;;;;;5030430;28;20470;-76
2022/07/08 04:05:57;;;;;;;6.43;3.63;;;;;;;;;;5030440;28;20439;-77
2022/07/08 04:08:24;;;;;;;5.70;3.60;;;;;;;;;;5031710;28;20450;-77
2022/07/08 04:10:53;;;;;;;5.90;4.20;;;;;;;;;;5050620;28;20503;-75
2022/07/08 04:13:20;;;;;;;6.73;4.33;;;;;;;;;;5050176;28;20476;-76
2022/07/08 04:15:47;;;;;;;7.27;3.97;;;;;;;;;;5036916;28;20551;-75
2022/07/08 04:18:14;;;;;;;6.30;3.80;;;;;;;;;;5040546;28;20450;-75
2022/07/08 04:20:42;;;;;;;4.67;3.60;;;;;;;;;;5041899;28;20443;-75
2022/07/08 04:23:09;;;;;;;5.50;4.37;;;;;;;;;;5042395;28;20493;-76
2022/07/08 04:25:36;;;;;;;7.10;4.03;;;;;;;;;;5041770;28;20439;-74
2022/07/08 04:28:04;;;;;;;3.77;3.47;;;;;;;;;;5060581;28;20437;-75
2022/07/08 04:30:31;;;;;;;9.80;3.77;;;;;;;;;;5048826;28;20430;-76
2022/07/08 04:32:58;;;;;;;10.20;4.10;;;;;;;;;;5031519;28;20831;-76
2022/07/08 04:35:25;;;;;;;7.77;3.83;;;;;;;;;;5030876;28;20482;-75
2022/07/08 04:37:52;;;;;;;5.17;3.70;;;;;;;;;;5034725;28;20496;-76
2022/07/08 04:40:19;;;;;;;11.00;4.57;;;;;;;;;;5034617;28;20450;-75
2022/07/08 04:42:46;;;;;;;7.20;3.70;;;;;;;;;;5034419;28;20470;-77
2022/07/08 04:45:15;;;;;;;6.17;3.83;;;;;;;;;;5034350;28;20972;-77
2022/07/08 04:47:42;;;;;;;7.57;4.20;;;;;;;;;;5034289;28;20504;-74
2022/07/08 04:50:09;;;;;;;12.33;4.37;;;;;;;;;;5034739;28;20442;-77
2022/07/08 04:52:36;;;;;;;4.83;3.73;;;;;;;;;;5033915;28;20478;-76
2022/07/08 04:55:03;;;;;;;9.13;4.17;;;;;;;;;;5034097;28;20523;-76
2022/07/08 04:57:32;;;;;;;14.70;4.43;;;;;;;;;;5034331;28;20540;-75
2022/07/08 04:59:59;;;;;;;6.40;3.70;;;;;;;;;;5033980;28;20446;-76
2022/07/08 05:02:28;;;;;;;7.40;3.37;;;;;;;;;;5033781;28;20576;-75
2022/07/08 05:04:55;;;;;;;4.50;3.60;;;;;;;;;;5034029;28;20438;-76
2022/07/08 05:07:22;;;;;;;10.97;4.00;;;;;;;;;;5035096;28;20515;-77
2022/07/08 05:09:49;;;;;;;5.90;3.73;;;;;;;;;;5051620;28;20937;-77
2022/07/08 05:12:16;;;;;;;4.30;3.83;;;;;;;;;;5055397;28;20536;-76
2022/07/08 05:14:44;;;;;;;7.57;3.70;;;;;;;;;;5054757;28;20441;-73
2022/07/08 05:17:11;;;;;;;8.63;3.80;;;;;;;;;;5054758;28;20441;-77
2022/07/08 05:19:39;;;;;;;7.40;3.90;;;;;;;;;;5054951;28;20988;-76
2022/07/08 05:22:06;;;;;;;5.70;3.30;;;;;;;;;;5055144;28;20552;-77
2022/07/08 05:24:33;;;;;;;8.63;3.80;;;;;;;;;;5054721;28;20532;-76
2022/07/08 05:27:00;;;;;;;6.33;4.30;;;;;;;;;;5054988;28;20988;-76
2022/07/08 05:29:27;;;;;;;4.40;3.23;;;;;;;;;;5055332;28;20437;-75
2022/07/08 05:31:54;;;;;;;8.10;3.40;;;;;;;;;;5053686;28;20541;-75
2022/07/08 05:34:22;;;;;;;8.10;3.50;;;;;;;;;;5053298;28;20536;-76
2022/07/08 05:36:50;;;;;;;4.17;3.37;;;;;;;;;;5053317;28;20531;-75
2022/07/08 05:39:17;;;;;;;6.80;2.97;;;;;;;;;;5052949;28;20494;-77
2022/07/08 05:41:44;;;;;;;5.33;3.10;;;;;;;;;;5053238;28;20473;-77
2022/07/08 05:44:11;;;;;;;5.23;2.80;;;;;;;;;;5054408;28;20433;-77
2022/07/08 05:46:38;;;;;;;8.63;4.00;;;;;;;;;;5053067;28;20448;-75
2022/07/08 05:49:05;;;;;;;9.70;3.40;;;;;;;;;;5036989;28;20890;-76
2022/07/08 05:51:32;;;;;;;8.30;3.57;;;;;;;;;;5033338;28;20520;-77
2022/07/08 05:54:00;;;;;;;6.13;3.80;;;;;;;;;;5033613;28;20443;-76
2022/07/08 05:56:27;;;;;;;5.40;3.40;;;;;;;;;;5032946;28;20994;-77
2022/07/08 05:58:54;;;;;;;7.90;3.37;;;;;;;;;;5033825;28;20458;-76
2022/07/08 06:01:22;;;;;;;4.57;3.20;;;;;;;;;;5032781;28;20451;-77
2022/07/08 06:03:49;;;;;;;4.70;3.17;;;;;;;;;;5033451;28;20442;-76
2022/07/08 06:06:16;;;;;;;6.60;3.17;;;;;;;;;;5032577;28;20480;-76
2022/07/08 06:08:43;;;;;;;4.87;2.70;;;;;;;;;;5032495;28;20440;-76
2022/07/08 06:11:11;;;;;;;6.37;2.77;;;;;;;;;;5032229;28;20446;-75
2022/07/08 06:13:39;;;;;;;7.00;2.80;;;;;;;;;;5032538;28;20496;-77
2022/07/08 06:16:06;;;;;;;4.77;2.70;;;;;;;;;;5046324;28;20482;-76
2022/07/08 06:18:33;;;;;;;7.20;2.90;;;;;;;;;;5050295;28;20477;-75
2022/07/08 06:21:00;;;;;;;4.70;2.87;;;;;;;;;;5038541;28;20543;-75
2022/07/08 06:23:27;;;;;;;4.83;3.13;;;;;;;;;;5036219;28;20458;-76
2022/07/08 06:25:54;;;;;;;7.60;3.10;;;;;;;;;;5033513;28;20938;-75
2022/07/08 06:28:22;;;;;;;6.13;3.40;;;;;;;;;;5032796;28;20498;-74
2022/07/08 06:30:49;;;;;;;5.00;2.60;;;;;;;;;;5032752;28;20996;-75
2022/07/08 06:33:16;;;;;;;7.47;3.17;;;;;;;;;;5032763;28;20516;-75
2022/07/08 06:35:43;;;;;;;4.57;2.60;;;;;;;;;;5033172;28;20527;-74
2022/07/08 06:38:10;;;;;;;4.20;2.80;;;;;;;;;;5032603;28;20443;-75
2022/07/08 06:40:37;;;;;;;4.50;2.17;;;;;;;;;;5032525;28;20446;-75
2022/07/08 06:43:04;;;;;;;4.30;2.07;;;;;;;;;;5032726;28;20588;-74
2022/07/08 06:45:33;;;;;;;7.17;2.57;;;;;;;;;;5033489;28;20446;-75
2022/07/08 06:48:00;;;;;;;3.90;2.50;;;;;;;;;;5034116;28;20516;-75
2022/07/08 06:50:27;;;;;;;4.67;1.87;;;;;;;;;;5033533;28;20500;-75
2022/07/08 06:52:54;;;;;;;2.13;1.93;;;;;;;;;;5033246;28;20554;-75
2022/07/08 06:55:22;;;;;;;4.57;2.20;;;;;;;;;;5031907;28;20489;-75
2022/07/08 06:57:49;;;;;;;2.90;2.23;;;;;;;;;;5032290;28;20451;-75
2022/07/08 07:00:16;;;;;;;4.20;2.13;;;;;;;;;;5032047;28;20504;-75
2022/07/08 07:02:44;;;;;;;3.60;1.93;;;;;;;;;;5031269;28;20489;-74
2022/07/08 07:05:13;;;;;;;3.83;2.00;;;;;;;;;;5031431;28;20435;-75
2022/07/08 07:07:40;;;;;;;3.50;1.80;;;;;;;;;;5031670;28;20504;-75
2022/07/08 07:10:07;;;;;;;3.33;2.60;;;;;;;;;;5032344;28;20443;-75
2022/07/08 07:12:34;;;;;;;2.00;1.40;;;;;;;;;;5031609;28;20596;-75
2022/07/08 07:15:01;;;;;;;2.20;2.00;;;;;;;;;;5031918;28;20640;-75
2022/07/08 07:17:28;;;;;;;4.47;2.00;;;;;;;;;;5031897;28;20566;-75
2022/07/08 07:19:59;;;;;;;3.73;1.90;;;;;;;;;;5033536;28;20446;-75
2022/07/08 07:22:26;;;;;;;4.87;2.00;;;;;;;;;;5034169;28;20466;-75
2022/07/08 07:24:53;;;;;;;3.77;2.20;;;;;;;;;;5031746;28;20451;-74
2022/07/08 07:27:20;;;;;;;7.53;3.33;;;;;;;;;;5032697;28;20477;-75
2022/07/08 07:29:47;;;;;;;4.30;1.93;;;;;;;;;;5030622;28;20996;-76
2022/07/08 07:32:14;;;;;;;4.90;2.37;;;;;;;;;;5031882;28;20470;-75
2022/07/08 07:34:41;;;;;;;2.73;1.50;;;;;;;;;;5045831;28;20441;-75
2022/07/08 07:37:09;;;;;;;4.20;1.97;;;;;;;;;;5052047;28;20535;-75
2022/07/08 07:39:36;;;;;;;5.70;2.57;;;;;;;;;;5051661;28;21235;-75
2022/07/08 07:42:04;;;;;;;3.63;2.03;;;;;;;;;;5051186;28;20494;-74
2022/07/08 07:44:31;;;;;;;4.00;2.07;;;;;;;;;;5051942;28;20929;-75
2022/07/08 07:46:58;;;;;;;5.83;2.17;;;;;;;;;;5051473;28;20433;-76
2022/07/08 07:49:25;;;;;;;3.53;2.43;;;;;;;;;;5051991;28;20959;-76
2022/07/08 07:51:52;;;;;;;6.00;2.20;;;;;;;;;;5051748;28;20527;-76
2022/07/08 07:54:20;;;;;;;2.17;1.83;;;;;;;;;;5050913;28;20445;-75
2022/07/08 07:56:47;;;;;;;6.00;3.40;;;;;;;;;;5051140;28;20477;-75
2022/07/08 07:59:14;;;;;;;4.30;2.43;;;;;;;;;;5051001;28;20508;-75
2022/07/08 08:01:41;;;;;;;4.07;1.70;;;;;;;;;;5050411;28;20481;-76
2022/07/08 08:04:08;;;;;;;4.97;2.40;;;;;;;;;;5050690;28;20484;-75
2022/07/08 08:06:35;;;;;;;4.30;1.60;;;;;;;;;;5050687;28;20500;-75
2022/07/08 08:09:02;;;;;;;3.33;1.80;;;;;;;;;;5050207;28;20995;-76
2022/07/08 08:11:31;;;;;;;3.50;1.60;;;;;;;;;;5046801;28;20500;-75
2022/07/08 08:13:58;;;;;;;3.90;2.10;;;;;;;;;;5043211;28;20496;-76
2022/07/08 08:16:25;;;;;;;5.17;1.60;;;;;;;;;;5046850;28;20508;-75
2022/07/08 08:18:52;;;;;;;4.30;1.90;;;;;;;;;;5050022;28;20483;-76
2022/07/08 08:21:19;;;;;;;2.27;1.80;;;;;;;;;;5040407;28;20446;-74
2022/07/08 08:23:46;;;;;;;2.73;1.70;;;;;;;;;;5030115;28;20443;-75
2022/07/08 08:26:13;;;;;;;2.43;1.70;;;;;;;;;;5030061;28;20492;-76
2022/07/08 08:28:41;;;;;;;2.83;1.70;;;;;;;;;;5045339;28;20852;-76
2022/07/08 08:31:08;;;;;;;2.37;1.80;;;;;;;;;;5051524;28;20511;-75
2022/07/08 08:33:36;;;;;;;5.03;2.17;;;;;;;;;;5052484;28;20832;-75
2022/07/08 08:36:03;;;;;;;2.30;1.80;;;;;;;;;;5037219;28;20548;-75
2022/07/08 08:38:30;;;;;;;3.57;2.10;;;;;;;;;;5031763;28;20454;-74
2022/07/08 08:40:58;;;;;;;1.80;1.70;;;;;;;;;;5050003;28;20445;-75
2022/07/08 08:43:25;;;;;;;4.13;2.10;;;;;;;;;;5045630;28;20548;-74
2022/07/08 08:45:54;;;;;;;3.80;2.17;;;;;;;;;;5049681;28;20489;-75
2022/07/08 08:48:23;;;;;;;2.03;1.80;;;;;;;;;;5040173;28;20443;-76
2022/07/08 08:50:56;;;;;;;4.03;1.87;;;;;;;;;;5029855;28;20872;-75
2022/07/08 08:53:25;;;;;;;5.47;2.30;;;;;;;;;;5029844;28;20458;-75
2022/07/08 08:55:53;;;;;;;3.27;1.70;;;;;;;;;;5029919;28;20443;-77
2022/07/08 08:58:20;;;;;;;4.00;1.77;;;;;;;;;;5030170;28;20811;-76
2022/07/08 09:00:47;;;;;;;5.00;1.90;;;;;;;;;;5030079;28;20504;-76
2022/07/08 09:03:16;;;;;;;5.43;1.83;;;;;;;;;;5029511;28;20896;-75
2022/07/08 09:05:43;;;;;;;3.17;1.70;;;;;;;;;;5030332;28;20447;-76
2022/07/08 09:08:10;;;;;;;3.77;1.83;;;;;;;;;;5031365;28;20447;-79
2022/07/08 09:10:37;;;;;;;5.43;2.23;;;;;;;;;;5037879;28;20859;-75
2022/07/08 09:13:05;;;;;;;2.57;1.77;;;;;;;;;;5050269;28;20805;-78
2022/07/08 09:15:33;;;;;;;3.87;1.70;;;;;;;;;;5050860;28;20438;-78
2022/07/08 09:18:01;;;;;;;2.20;1.80;;;;;;;;;;5051538;28;20513;-79
2022/07/08 09:20:29;;;;;;;4.30;2.20;;;;;;;;;;5051218;28;20537;-79
2022/07/08 09:22:58;;;;;;;5.50;1.87;;;;;;;;;;5050703;28;20461;-76
2022/07/08 09:25:25;;;;;;;3.40;2.20;;;;;;;;;;5053467;28;20540;-76
2022/07/08 09:27:53;;;;;;;2.70;2.00;;;;;;;;;;5054132;28;20445;-78
2022/07/08 09:30:20;;;;;;;2.30;2.13;;;;;;;;;;5036307;28;20476;-76
2022/07/08 09:32:58;;;;;;;3.27;1.90;;;;;;;;;;5035028;28;20515;-76
2022/07/08 09:35:31;;;;;;;2.57;1.80;;;;;;;;;;5053323;28;20508;-76
2022/07/08 09:38:01;;;;;;;1.73;1.63;;;;;;;;;;5047793;28;20478;-77
2022/07/08 09:40:28;;;;;;;2.13;1.60;;;;;;;;;;5066016;28;20457;-77
2022/07/08 09:42:55;;;;;;;8.03;2.30;;;;;;;;;;5075161;28;20956;-77
2022/07/08 09:45:23;;;;;;;2.10;1.90;;;;;;;;;;5075607;28;20959;-77
2022/07/08 09:47:53;;;;;;;3.63;1.80;;;;;;;;;;5074817;28;20855;-75
2022/07/08 09:50:20;;;;;;;3.60;1.80;;;;;;;;;;5074566;28;20932;-76
2022/07/08 09:52:52;;;;;;;3.23;1.80;;;;;;;;;;5074755;28;20465;-77
2022/07/08 09:55:20;;;;;;;3.30;1.87;;;;;;;;;;5075161;28;20448;-76
2022/07/08 09:57:47;;;;;;;6.77;2.20;;;;;;;;;;5075140;28;20548;-76
2022/07/08 10:00:14;;;;;;;3.70;1.70;;;;;;;;;;5066151;28;20442;-76
2022/07/08 10:02:41;;;;;;;1.73;1.50;;;;;;;;;;5046586;28;20493;-76
2022/07/08 10:05:09;;;;;;;4.43;1.60;;;;;;;;;;5046929;28;20461;-76
2022/07/08 10:07:36;;;;;;;3.23;2.33;;;;;;;;;;5033979;28;20434;-75
2022/07/08 10:10:05;;;;;;;4.33;2.17;;;;;;;;;;5049039;28;20441;-76
2022/07/08 10:12:34;;;;;;;2.13;1.97;;;;;;;;;;5051947;28;20476;-76
2022/07/08 10:15:02;;;;;;;4.50;2.10;;;;;;;;;;5052934;28;20909;-76
2022/07/08 10:17:29;;;;;;;2.30;1.47;;;;;;;;;;5051342;28;21050;-76
2022/07/08 10:19:56;;;;;;;3.90;2.00;;;;;;;;;;5034979;28;20450;-77
2022/07/08 10:22:24;;;;;;;6.53;1.93;;;;;;;;;;5052351;28;20461;-76
2022/07/08 10:24:52;;;;;;;3.63;1.53;;;;;;;;;;5048459;28;20438;-77
2022/07/08 10:27:24;;;;;;;3.33;1.60;;;;;;;;;;5034100;28;20439;-76
2022/07/08 10:29:51;;;;;;;3.50;2.00;;;;;;;;;;5034075;28;20464;-78
2022/07/08 10:32:27;;;;;;;4.93;2.20;;;;;;;;;;5034291;28;20454;-76
2022/07/08 10:35:10;;;;;;;2.47;1.50;;;;;;;;;;5033094;28;20438;-77
2022/07/08 10:37:48;;;;;;;3.27;1.80;;;;;;;;;;5033536;28;20524;-74
2022/07/08 10:40:35;;;;;;;2.30;1.50;;;;;;;;;;5033276;28;20476;-75
2022/07/08 10:43:21;;;;;;;4.60;2.23;;;;;;;;;;5050286;28;20461;-75
2022/07/08 10:45:59;;;;;;;3.83;1.87;;;;;;;;;;5046604;28;20449;-76
2022/07/08 10:48:27;;;;;;;1.80;1.67;;;;;;;;;;5052998;28;20523;-76
2022/07/08 10:50:54;;;;;;;2.40;1.63;;;;;;;;;;5052986;28;20534;-77
2022/07/08 10:53:21;;;;;;;1.73;1.50;;;;;;;;;;5052331;28;20461;-76
2022/07/08 10:55:48;;;;;;;2.90;1.60;;;;;;;;;;5052362;28;20448;-75
2022/07/08 10:58:16;;;;;;;3.67;1.60;;;;;;;;;;5052343;28;20523;-76
2022/07/08 11:01:03;;;;;;;4.30;1.87;;;;;;;;;;5052465;28;20515;-76
2022/07/08 11:03:42;;;;;;;1.80;1.53;;;;;;;;;;5051872;28;21036;-75
2022/07/08 11:06:29;;;;;;;2.80;1.50;;;;;;;;;;5053745;28;20442;-77
2022/07/08 11:09:01;;;;;;;2.03;1.70;;;;;;;;;;5053902;28;21143;-76
2022/07/08 11:11:29;;;;;;;2.90;1.30;;;;;;;;;;5054391;28;20442;-77
2022/07/08 11:13:57;;;;;;;4.17;1.33;;;;;;;;;;5053374;28;20936;-75
2022/07/08 11:16:24;;;;;;;1.80;1.20;;;;;;;;;;5053641;28;20483;-76
2022/07/08 11:18:51;;;;;;;2.03;1.30;;;;;;;;;;5052981;28;20468;-77
2022/07/08 11:21:18;;;;;;;3.27;1.30;;;;;;;;;;5052836;28;20541;-77
2022/07/08 11:23:48;;;;;;;2.27;1.20;;;;;;;;;;5052953;28;20511;-75
2022/07/08 11:26:20;;;;;;;2.60;1.63;;;;;;;;;;5052977;28;20835;-77
2022/07/08 11:28:47;;;;;;;2.67;1.67;;;;;;;;;;5052765;28;20445;-76
2022/07/08 11:31:24;;;;;;;2.47;2.20;;;;;;;;;;5053087;28;20937;-77
2022/07/08 11:33:51;;;;;;;2.10;1.60;;;;;;;;;;5052113;28;20521;-76
2022/07/08 11:36:19;;;;;;;4.57;1.80;;;;;;;;;;5050860;28;20438;-75
2022/07/08 11:38:46;;;;;;;5.17;1.47;;;;;;;;;;5050956;28;20531;-76
2022/07/08 11:41:13;;;;;;;2.03;1.30;;;;;;;;;;5050043;28;20441;-76
2022/07/08 11:43:41;;;;;;;1.30;1.20;;;;;;;;;;5052068;28;20445;-76
2022/07/08 11:46:15;;;;;;;5.27;1.40;;;;;;;;;;5051213;28;20462;-75
2022/07/08 11:48:44;;;;;;;2.93;1.83;;;;;;;;;;5051100;28;20437;-75
2022/07/08 11:51:13;;;;;;;3.37;1.30;;;;;;;;;;5050911;28;20438;-76
2022/07/08 11:53:40;;;;;;;2.80;1.33;;;;;;;;;;5050782;28;20941;-77
2022/07/08 11:56:07;;;;;;;3.67;1.70;;;;;;;;;;5049089;28;20510;-75
2022/07/08 11:58:35;;;;;;;2.53;1.40;;;;;;;;;;5048589;28;20550;-76
2022/07/08 12:01:02;;;;;;;1.87;1.00;;;;;;;;;;5050019;28;20434;-77
2022/07/08 12:03:29;;;;;;;2.87;1.30;;;;;;;;;;5050755;28;20531;-77
2022/07/08 12:05:58;;;;;;;1.83;1.30;;;;;;;;;;5048392;28;20777;-74
2022/07/08 12:08:25;;;;;;;3.60;1.40;;;;;;;;;;5042095;28;20930;-74
2022/07/08 12:10:52;;;;;;;4.20;1.30;;;;;;;;;;5030606;28;20866;-74
2022/07/08 12:13:19;;;;;;;5.67;1.60;;;;;;;;;;5030236;28;20466;-74
2022/07/08 12:15:47;;;;;;;2.20;1.47;;;;;;;;;;5030368;28;20446;-76
2022/07/08 12:18:14;;;;;;;2.80;1.30;;;;;;;;;;5030413;28;20569;-76
2022/07/08 12:20:41;;;;;;;2.30;1.60;;;;;;;;;;5030628;28;20450;-74
2022/07/08 12:23:12;;;;;;;2.30;1.33;;;;;;;;;;5031539;28;20764;-75
2022/07/08 12:25:48;;;;;;;3.33;1.20;;;;;;;;;;5039713;28;20510;-76
2022/07/08 12:28:15;;;;;;;2.20;1.40;;;;;;;;;;5040034;28;20474;-75
2022/07/08 12:30:42;;;;;;;3.13;1.40;;;;;;;;;;5039463;28;20442;-76
2022/07/08 12:33:09;;;;;;;2.87;1.40;;;;;;;;;;5036366;28;20580;-75
2022/07/08 12:35:36;;;;;;;3.00;1.33;;;;;;;;;;5038251;28;20449;-74
2022/07/08 12:38:04;;;;;;;3.90;1.77;;;;;;;;;;5032504;28;20860;-75
2022/07/08 12:40:39;;;;;;;2.73;1.40;;;;;;;;;;5030266;28;20478;-76
2022/07/08 12:43:06;;;;;;;3.10;1.40;;;;;;;;;;5029972;28;20465;-76
2022/07/08 12:45:34;;;;;;;3.43;1.37;;;;;;;;;;5047865;28;20441;-75
2022/07/08 12:48:02;;;;;;;2.70;1.23;;;;;;;;;;5061706;28;20445;-76
2022/07/08 12:50:31;;;;;;;3.17;1.40;;;;;;;;;;5054514;28;20441;-75
2022/07/08 12:52:58;;;;;;;2.97;1.60;;;;;;;;;;5051794;28;20486;-75
2022/07/08 12:55:25;;;;;;;3.33;1.57;;;;;;;;;;5051840;28;20446;-75
2022/07/08 12:57:53;;;;;;;3.33;1.30;;;;;;;;;;5054886;28;20477;-74
2022/07/08 13:00:21;;;;;;;3.43;1.20;;;;;;;;;;5055939;28;20468;-75
2022/07/08 13:02:49;;;;;;;6.33;1.50;;;;;;;;;;5052974;28;20875;-74
2022/07/08 13:05:16;;;;;;;3.60;1.67;;;;;;;;;;5048293;28;20445;-76
2022/07/08 13:07:45;;;;;;;3.83;1.47;;;;;;;;;;5048487;28;20433;-76
2022/07/08 13:10:12;;;;;;;3.70;1.40;;;;;;;;;;5045047;28;20439;-75
2022/07/08 13:12:39;;;;;;;2.10;1.33;;;;;;;;;;5076177;28;20456;-76
2022/07/08 13:15:08;;;;;;;2.13;1.23;;;;;;;;;;5051847;28;20449;-75
2022/07/08 13:17:35;;;;;;;2.30;1.83;;;;;;;;;;5044895;28;20474;-75
2022/07/08 13:20:03;;;;;;;2.10;1.40;;;;;;;;;;5045665;28;20909;-76
2022/07/08 13:22:30;;;;;;;3.73;1.30;;;;;;;;;;5049157;28;21003;-77
2022/07/08 13:24:57;;;;;;;3.03;1.13;;;;;;;;;;5054735;28;20445;-76
2022/07/08 13:27:24;;;;;;;2.53;1.20;;;;;;;;;;5054353;28;20835;-75
2022/07/08 13:29:51;;;;;;;1.67;1.37;;;;;;;;;;5054340;28;20437;-78
2022/07/08 13:32:19;;;;;;;3.27;1.20;;;;;;;;;;5054011;28;20524;-78
2022/07/08 13:34:46;;;;;;;2.30;1.50;;;;;;;;;;5044972;28;20442;-77
2022/07/08 13:37:13;;;;;;;2.50;1.27;;;;;;;;;;5042741;28;20955;-74
2022/07/08 13:39:40;;;;;;;2.20;0.90;;;;;;;;;;5033915;28;20580;-75
2022/07/08 13:42:07;;;;;;;2.50;1.40;;;;;;;;;;5033371;28;20520;-73
2022/07/08 13:44:34;;;;;;;1.97;1.13;;;;;;;;;;5033100;28;20849;-76
2022/07/08 13:47:01;;;;;;;1.50;1.40;;;;;;;;;;5039235;28;20443;-77
2022/07/08 13:49:30;;;;;;;3.30;1.40;;;;;;;;;;5048181;28;21014;-76
2022/07/08 13:51:57;;;;;;;2.93;1.57;;;;;;;;;;5052776;28;20466;-76
2022/07/08 13:54:24;;;;;;;1.53;1.27;;;;;;;;;;5052916;28;20442;-75
2022/07/08 13:56:51;;;;;;;3.03;1.70;;;;;;;;;;5053206;28;20491;-74
2022/07/08 13:59:18;;;;;;;2.97;1.60;;;;;;;;;;5053485;28;20539;-75
2022/07/08 14:01:45;;;;;;;2.87;1.60;;;;;;;;;;5053038;28;20477;-75
2022/07/08 14:04:12;;;;;;;2.60;1.83;;;;;;;;;;5052399;28;20523;-75
2022/07/08 14:06:40;;;;;;;2.53;1.70;;;;;;;;;;5053138;28;20511;-76
2022/07/08 14:09:07;;;;;;;1.80;1.40;;;;;;;;;;5052634;28;20442;-77
2022/07/08 14:11:34;;;;;;;3.73;1.80;;;;;;;;;;5052736;28;21007;-76
2022/07/08 14:14:01;;;;;;;2.27;1.60;;;;;;;;;;5052803;28;20441;-75
2022/07/08 14:16:28;;;;;;;3.97;1.43;;;;;;;;;;5053135;28;20507;-75
2022/07/08 14:18:55;;;;;;;2.13;1.50;;;;;;;;;;5053394;28;21028;-76
2022/07/08 14:21:22;;;;;;;2.00;1.60;;;;;;;;;;5053527;28;20464;-75
2022/07/08 14:23:51;;;;;;;4.20;1.60;;;;;;;;;;5052796;28;20438;-75
2022/07/08 14:26:18;;;;;;;1.70;1.33;;;;;;;;;;5052313;28;20588;-74
2022/07/08 14:28:45;;;;;;;2.30;1.60;;;;;;;;;;5052671;28;20441;-75
2022/07/08 14:31:12;;;;;;;2.03;1.40;;;;;;;;;;5052108;28;20446;-76
2022/07/08 14:33:39;;;;;;;4.43;2.00;;;;;;;;;;5046230;28;20449;-75
2022/07/08 14:36:06;;;;;;;2.70;1.53;;;;;;;;;;5051809;28;20445;-75
2022/07/08 14:38:33;;;;;;;2.77;1.23;;;;;;;;;;5041494;28;20486;-75
2022/07/08 14:41:01;;;;;;;5.03;1.80;;;;;;;;;;5032081;28;20447;-75
2022/07/08 14:43:28;;;;;;;4.40;1.77;;;;;;;;;;5031488;28;21031;-75
2022/07/08 14:45:55;;;;;;;3.50;1.60;;;;;;;;;;5031759;28;20446;-73